| time (UTC) | temp C | wind direction | speed KPH | gust KPH | rain 1hr cm | rain 24hr cm | rain mn cm | humidity % | barometer mb |
| 20260503071519 | 14 | 41 | 0.0 | 6.4 | 0.00 | 0.13 | 0.10 | 92 | 1010.0 |
| 20260503070517 | 14 | 39 | 1.6 | 9.7 | 0.00 | 0.13 | 0.10 | 92 | 1010.0 |
| 20260503054432 | 12 | 43 | 0.0 | 0.0 | 0.03 | 0.13 | 0.10 | 92 | 1010.3 |
| 20260503053932 | 12 | 46 | 0.0 | 0.0 | 0.03 | 0.13 | 0.10 | 92 | 1010.3 |
| 20260503053432 | 12 | 46 | 0.0 | 0.0 | 0.03 | 0.13 | 0.10 | 92 | 1010.3 |
| 20260503052914 | 12 | 46 | 0.0 | 0.0 | 0.03 | 0.13 | 0.10 | 92 | 1010.3 |
| 20260503052403 | 12 | 40 | 0.0 | 0.0 | 0.03 | 0.13 | 0.10 | 92 | 1010.4 |
| 20260503051906 | 12 | 40 | 0.0 | 0.0 | 0.03 | 0.13 | 0.10 | 92 | 1010.4 |
| 20260503051354 | 12 | 40 | 0.0 | 0.0 | 0.03 | 0.13 | 0.10 | 92 | 1010.5 |
| 20260503050333 | 12 | 40 | 0.0 | 0.0 | 0.00 | 0.10 | 0.08 | 92 | 1010.3 |
| 20260503045833 | 12 | 40 | 0.0 | 0.0 | 0.03 | 0.10 | 0.03 | 92 | 1010.3 |
| 20260503045336 | 12 | 40 | 0.0 | 0.0 | 0.03 | 0.10 | 0.03 | 91 | 1010.4 |
| 20260503044833 | 12 | 40 | 0.0 | 0.0 | 0.03 | 0.10 | 0.03 | 91 | 1010.3 |
| 20260503044324 | 12 | 40 | 0.0 | 0.0 | 0.03 | 0.10 | 0.03 | 91 | 1010.3 |
| 20260503043820 | 12 | 40 | 0.0 | 0.0 | 0.03 | 0.10 | 0.03 | 91 | 1010.3 |
| 20260503042808 | 12 | 40 | 0.0 | 0.0 | 0.05 | 0.10 | 0.03 | 91 | 1010.3 |
| 20260503042305 | 12 | 40 | 0.0 | 0.0 | 0.05 | 0.10 | 0.03 | 91 | 1010.4 |
| 20260503041807 | 12 | 40 | 0.0 | 0.0 | 0.05 | 0.10 | 0.03 | 91 | 1010.4 |
| 20260503041242 | 12 | 40 | 0.0 | 0.0 | 0.05 | 0.10 | 0.03 | 91 | 1010.4 |
| 20260503040733 | 12 | 40 | 0.0 | 0.0 | 0.05 | 0.10 | 0.03 | 91 | 1010.6 |
| 20260503040232 | 12 | 40 | 0.0 | 0.0 | 0.05 | 0.10 | 0.08 | 91 | 1010.6 |
| 20260503035210 | 12 | 40 | 0.0 | 1.6 | 0.05 | 0.08 | 0.05 | 91 | 1010.8 |
| 20260503034707 | 12 | 40 | 0.0 | 1.6 | 0.05 | 0.08 | 0.05 | 91 | 1011.0 |
| 20260503033709 | 12 | 39 | 0.0 | 0.0 | 0.05 | 0.08 | 0.05 | 91 | 1011.2 |
| 20260503033206 | 12 | 39 | 0.0 | 0.0 | 0.03 | 0.05 | 0.05 | 91 | 1011.3 |
| 20260503032704 | 12 | 39 | 0.0 | 0.0 | 0.03 | 0.05 | 0.05 | 91 | 1011.4 |
| 20260503032154 | 12 | 39 | 0.0 | 0.0 | 0.00 | 0.05 | 0.03 | 91 | 1011.5 |
| 20260503031636 | 12 | 39 | 0.0 | 0.0 | 0.00 | 0.05 | 0.03 | 91 | 1011.5 |
| 20260503031110 | 12 | 39 | 0.0 | 0.0 | 0.00 | 0.05 | 0.03 | 91 | 1011.3 |
| 20260503030608 | 12 | 39 | 0.0 | 0.0 | 0.00 | 0.05 | 0.03 | 91 | 1011.4 |
| 20260503030114 | 12 | 39 | 0.0 | 0.0 | 0.00 | 0.05 | 0.03 | 91 | 1011.3 |
| 20260503025612 | 12 | 39 | 0.0 | 0.0 | 0.00 | 0.05 | 0.03 | 91 | 1011.3 |
| 20260503025107 | 12 | 39 | 0.0 | 0.0 | 0.00 | 0.05 | 0.03 | 91 | 1011.4 |
| 20260503024611 | 12 | 39 | 0.0 | 0.0 | 0.00 | 0.05 | 0.03 | 91 | 1011.3 |
| 20260503024108 | 12 | 39 | 0.0 | 0.0 | 0.00 | 0.05 | 0.03 | 91 | 1011.4 |
| 20260503023608 | 12 | 39 | 0.0 | 0.0 | 0.00 | 0.05 | 0.03 | 91 | 1011.4 |
| 20260503023105 | 12 | 39 | 0.0 | 0.0 | 0.00 | 0.05 | 0.03 | 91 | 1011.5 |
| 20260503022546 | 12 | 39 | 0.0 | 0.0 | 0.00 | 0.05 | 0.03 | 91 | 1011.4 |
| 20260503022034 | 12 | 39 | 0.0 | 0.0 | 0.00 | 0.05 | 0.03 | 91 | 1011.4 |
| 20260503021529 | 12 | 39 | 0.0 | 0.0 | 0.00 | 0.05 | 0.03 | 91 | 1011.4 |
| 20260503021024 | 12 | 39 | 0.0 | 0.0 | 0.00 | 0.05 | 0.03 | 91 | 1011.4 |
| 20260503020516 | 12 | 39 | 0.0 | 0.0 | 0.00 | 0.05 | 0.03 | 91 | 1011.4 |
| 20260503020013 | 12 | 39 | 0.0 | 0.0 | 0.00 | 0.05 | 0.03 | 91 | 1011.5 |
| 20260503015525 | 12 | 39 | 0.0 | 0.0 | 0.00 | 0.05 | 0.03 | 91 | 1011.6 |
| 20260503014028 | 12 | 39 | 0.0 | 0.0 | 0.00 | 0.05 | 0.03 | 91 | 1011.6 |
| 20260503013524 | 12 | 39 | 0.0 | 0.0 | 0.00 | 0.05 | 0.03 | 91 | 1011.5 |
| 20260503013011 | 12 | 39 | 0.0 | 0.0 | 0.00 | 0.05 | 0.03 | 91 | 1011.6 |
| 20260503012525 | 12 | 39 | 0.0 | 0.0 | 0.00 | 0.05 | 0.03 | 91 | 1011.5 |
| 20260503012028 | 12 | 39 | 0.0 | 0.0 | 0.00 | 0.05 | 0.03 | 91 | 1011.5 |
| 20260503011524 | 12 | 39 | 0.0 | 0.0 | 0.00 | 0.05 | 0.03 | 91 | 1011.5 |
| 20260503011020 | 12 | 39 | 0.0 | 0.0 | 0.00 | 0.05 | 0.03 | 91 | 1011.5 |
| 20260503010521 | 12 | 39 | 0.0 | 0.0 | 0.00 | 0.05 | 0.03 | 91 | 1011.7 |
| 20260503010007 | 12 | 39 | 0.0 | 0.0 | 0.00 | 0.05 | 0.03 | 91 | 1011.7 |
| 20260503005511 | 12 | 38 | 0.0 | 0.0 | 0.00 | 0.05 | 0.03 | 91 | 1011.7 |
| 20260503005008 | 12 | 38 | 0.0 | 0.0 | 0.00 | 0.05 | 0.03 | 91 | 1011.7 |
| 20260503004523 | 12 | 38 | 0.0 | 0.0 | 0.00 | 0.05 | 0.03 | 91 | 1011.7 |
| 20260503003456 | 12 | 38 | 0.0 | 0.0 | 0.00 | 0.05 | 0.03 | 91 | 1011.6 |
| 20260503002939 | 12 | 38 | 0.0 | 3.2 | 0.00 | 0.05 | 0.03 | 91 | 1011.6 |
| 20260503002436 | 12 | 38 | 0.0 | 3.2 | 0.00 | 0.05 | 0.03 | 91 | 1011.8 |
| 20260503001412 | 13 | 37 | 0.0 | 3.2 | 0.00 | 0.05 | 0.03 | 90 | 1011.9 |
| 20260503000906 | 13 | 33 | 0.0 | 3.2 | 0.00 | 0.05 | 0.03 | 90 | 1012.0 |
| 20260503000408 | 13 | 30 | 0.0 | 4.8 | 0.00 | 0.05 | 0.03 | 90 | 1012.1 |
| 20260502235916 | 13 | 29 | 0.0 | 4.8 | 0.00 | 0.05 | 0.03 | 90 | 1012.1 |
| 20260502235407 | 13 | 51 | 0.0 | 1.6 | 0.03 | 0.05 | 0.03 | 90 | 1012.1 |
| 20260502234910 | 13 | 63 | 0.0 | 1.6 | 0.03 | 0.05 | 0.03 | 90 | 1012.2 |
| 20260502233906 | 13 | 44 | 0.0 | 4.8 | 0.03 | 0.05 | 0.03 | 90 | 1012.3 |
| 20260502233413 | 13 | 37 | 0.0 | 6.4 | 0.03 | 0.05 | 0.03 | 90 | 1012.4 |
| 20260502232905 | 13 | 37 | 0.0 | 6.4 | 0.03 | 0.05 | 0.03 | 90 | 1012.4 |
| 20260502232406 | 13 | 58 | 0.0 | 8.0 | 0.03 | 0.05 | 0.03 | 90 | 1012.6 |
| 20260502231409 | 13 | 53 | 1.6 | 9.7 | 0.03 | 0.05 | 0.03 | 90 | 1012.7 |
| 20260502230907 | 13 | 34 | 0.0 | 6.4 | 0.03 | 0.05 | 0.03 | 90 | 1012.8 |
| 20260502230419 | 13 | 68 | 0.0 | 6.4 | 0.03 | 0.05 | 0.03 | 89 | 1013.0 |
| 20260502225839 | 13 | 40 | 0.0 | 12.9 | 0.03 | 0.05 | 0.03 | 89 | 1012.9 |
| 20260502225337 | 13 | 51 | 3.2 | 12.9 | 0.00 | 0.03 | 0.00 | 89 | 1013.1 |
| 20260502224308 | 13 | 359 | 6.4 | 22.5 | 0.00 | 0.03 | 0.00 | 88 | 1013.9 |
| 20260502223806 | 13 | 9 | 4.8 | 19.3 | 0.00 | 0.03 | 0.00 | 88 | 1013.7 |
| 20260502223311 | 13 | 41 | 3.2 | 16.1 | 0.00 | 0.03 | 0.00 | 88 | 1013.8 |
| 20260502222805 | 13 | 70 | 3.2 | 12.9 | 0.00 | 0.03 | 0.00 | 88 | 1014.3 |
| 20260502222306 | 12 | 172 | 1.6 | 9.7 | 0.00 | 0.03 | 0.00 | 88 | 1014.0 |
| 20260502221233 | 12 | 55 | 0.0 | 0.0 | 0.00 | 0.03 | 0.00 | 88 | 1013.0 |
| 20260502220735 | 12 | 54 | 0.0 | 0.0 | 0.00 | 0.03 | 0.00 | 89 | 1013.0 |
| 20260502215704 | 12 | 56 | 0.0 | 0.0 | 0.00 | 0.03 | 0.03 | 89 | 1013.0 |
| 20260502214709 | 12 | 53 | 0.0 | 0.0 | 0.00 | 0.03 | 0.03 | 89 | 1013.1 |
| 20260502214149 | 12 | 52 | 0.0 | 0.0 | 0.00 | 0.03 | 0.03 | 89 | 1013.2 |
| 20260502213639 | 12 | 52 | 0.0 | 0.0 | 0.00 | 0.03 | 0.03 | 89 | 1013.2 |
| 20260502212611 | 12 | 93 | 0.0 | 0.0 | 0.00 | 0.03 | 0.03 | 88 | 1013.2 |
| 20260502212125 | 12 | 94 | 0.0 | 0.0 | 0.00 | 0.03 | 0.03 | 88 | 1013.5 |
| 20260502211607 | 12 | 94 | 0.0 | 0.0 | 0.00 | 0.03 | 0.03 | 88 | 1013.5 |
| 20260502211107 | 12 | 93 | 0.0 | 0.0 | 0.00 | 0.03 | 0.03 | 88 | 1013.6 |
| 20260502210117 | 12 | 93 | 0.0 | 0.0 | 0.00 | 0.03 | 0.03 | 88 | 1013.8 |
| 20260502205605 | 12 | 93 | 0.0 | 0.0 | 0.00 | 0.03 | 0.03 | 88 | 1013.8 |
| 20260502205105 | 12 | 94 | 0.0 | 0.0 | 0.00 | 0.03 | 0.03 | 88 | 1013.9 |
| 20260502204043 | 12 | 94 | 0.0 | 0.0 | 0.00 | 0.03 | 0.03 | 88 | 1014.0 |
| 20260502203534 | 12 | 94 | 0.0 | 0.0 | 0.00 | 0.03 | 0.03 | 88 | 1014.0 |
| 20260502203031 | 12 | 94 | 0.0 | 0.0 | 0.00 | 0.03 | 0.03 | 88 | 1014.0 |
| 20260502202521 | 13 | 95 | 0.0 | 0.0 | 0.00 | 0.03 | 0.03 | 88 | 1014.1 |
| 20260502202020 | 13 | 96 | 0.0 | 0.0 | 0.00 | 0.03 | 0.03 | 87 | 1014.2 |
| 20260502201527 | 13 | 96 | 0.0 | 0.0 | 0.00 | 0.03 | 0.03 | 87 | 1014.2 |
| 20260502201029 | 13 | 94 | 0.0 | 0.0 | 0.00 | 0.03 | 0.03 | 87 | 1014.3 |
| 20260502200522 | 13 | 94 | 0.0 | 0.0 | 0.00 | 0.03 | 0.03 | 87 | 1014.4 |
| 20260502195525 | 13 | 94 | 0.0 | 0.0 | 0.00 | 0.03 | 0.03 | 87 | 1014.4 |
| 20260502195028 | 13 | 94 | 0.0 | 0.0 | 0.00 | 0.03 | 0.03 | 86 | 1014.4 |
| 20260502194532 | 13 | 94 | 0.0 | 0.0 | 0.00 | 0.03 | 0.03 | 86 | 1014.4 |
| 20260502194033 | 13 | 94 | 0.0 | 0.0 | 0.00 | 0.03 | 0.03 | 86 | 1014.4 |
| 20260502193517 | 13 | 92 | 0.0 | 0.0 | 0.00 | 0.03 | 0.03 | 85 | 1014.4 |
| 20260502193024 | 13 | 93 | 0.0 | 0.0 | 0.00 | 0.03 | 0.03 | 85 | 1014.4 |
| 20260502192524 | 13 | 93 | 0.0 | 0.0 | 0.00 | 0.03 | 0.03 | 85 | 1014.4 |
| 20260502192033 | 14 | 82 | 0.0 | 0.0 | 0.00 | 0.03 | 0.03 | 85 | 1014.6 |
| 20260502191522 | 14 | 83 | 0.0 | 0.0 | 0.00 | 0.03 | 0.03 | 85 | 1014.6 |
| 20260502191030 | 14 | 83 | 0.0 | 0.0 | 0.00 | 0.03 | 0.03 | 84 | 1014.6 |
| 20260502190028 | 14 | 83 | 0.0 | 0.0 | 0.00 | 0.03 | 0.03 | 84 | 1014.6 |
| 20260502185023 | 15 | 90 | 0.0 | 0.0 | 0.00 | 0.03 | 0.03 | 83 | 1014.6 |
| 20260502184526 | 15 | 90 | 0.0 | 0.0 | 0.00 | 0.03 | 0.03 | 83 | 1014.5 |
| 20260502184008 | 15 | 90 | 0.0 | 0.0 | 0.00 | 0.03 | 0.03 | 83 | 1014.5 |
| 20260502183520 | 15 | 134 | 0.0 | 1.6 | 0.00 | 0.03 | 0.03 | 82 | 1014.5 |
| 20260502183024 | 15 | 134 | 0.0 | 1.6 | 0.00 | 0.03 | 0.03 | 82 | 1014.5 |
| 20260502182527 | 15 | 108 | 0.0 | 0.0 | 0.00 | 0.03 | 0.03 | 82 | 1014.6 |
| 20260502182012 | 15 | 129 | 0.0 | 1.6 | 0.00 | 0.03 | 0.03 | 81 | 1014.6 |
| 20260502181510 | 15 | 129 | 0.0 | 1.6 | 0.00 | 0.03 | 0.03 | 81 | 1014.5 |
| 20260502180514 | 16 | 131 | 0.0 | 1.6 | 0.00 | 0.03 | 0.03 | 80 | 1014.7 |
| 20260502170500 | 17 | 240 | 1.6 | 3.2 | 0.00 | 0.03 | 0.03 | 75 | 1015.2 |
| 20260502163906 | 17 | 267 | 0.0 | 4.8 | 0.00 | 0.03 | 0.03 | 71 | 1015.5 |
| 20260502163409 | 17 | 152 | 0.0 | 4.8 | 0.00 | 0.03 | 0.03 | 66 | 1015.6 |
| 20260502162838 | 17 | 177 | 0.0 | 12.9 | 0.00 | 0.03 | 0.03 | 69 | 1015.5 |
| 20260502161836 | 17 | 262 | 1.6 | 1.6 | 0.00 | 0.03 | 0.03 | 66 | 1015.7 |
| 20260502161313 | 17 | 139 | 1.6 | 12.9 | 0.00 | 0.03 | 0.03 | 68 | 1015.8 |
| 20260502160808 | 17 | 245 | 1.6 | 12.9 | 0.00 | 0.03 | 0.03 | 65 | 1015.7 |
| 20260502151807 | 17 | 88 | 0.0 | 9.7 | 0.00 | 0.03 | 0.03 | 60 | 1016.1 |
| 20260502151304 | 17 | 207 | 0.0 | 4.8 | 0.00 | 0.03 | 0.03 | 62 | 1016.1 |
| 20260502150806 | 17 | 159 | 1.6 | 9.7 | 0.00 | 0.03 | 0.03 | 63 | 1016.1 |
| 20260502130635 | 17 | 269 | 3.2 | 11.3 | 0.00 | 0.03 | 0.03 | 70 | 1016.9 |
| 20260502130133 | 17 | 164 | 3.2 | 11.3 | 0.00 | 0.03 | 0.03 | 69 | 1016.9 |
| 20260502123604 | 17 | 219 | 4.8 | 11.3 | 0.00 | 0.03 | 0.03 | 77 | 1017.1 |
| 20260502123103 | 17 | 191 | 4.8 | 11.3 | 0.00 | 0.03 | 0.03 | 77 | 1017.2 |
| 20260502122535 | 17 | 174 | 4.8 | 14.5 | 0.00 | 0.03 | 0.03 | 77 | 1017.3 |
| 20260502122038 | 17 | 356 | 4.8 | 14.5 | 0.00 | 0.03 | 0.03 | 77 | 1017.3 |
| 20260502121535 | 17 | 126 | 3.2 | 17.7 | 0.00 | 0.03 | 0.03 | 76 | 1017.3 |
| 20260502120531 | 18 | 34 | 3.2 | 17.7 | 0.00 | 0.03 | 0.03 | 75 | 1017.4 |
| 20260502115522 | 18 | 190 | 3.2 | 19.3 | 0.00 | 0.03 | 0.03 | 75 | 1017.3 |
| 20260502115024 | 18 | 46 | 1.6 | 9.7 | 0.00 | 0.03 | 0.03 | 78 | 1017.4 |
| 20260502113512 | 18 | 158 | 1.6 | 12.9 | 0.00 | 0.03 | 0.03 | 76 | 1017.3 |
| 20260502113023 | 18 | 102 | 1.6 | 12.9 | 0.00 | 0.03 | 0.03 | 76 | 1017.4 |
| 20260502112519 | 18 | 186 | 1.6 | 9.7 | 0.00 | 0.03 | 0.03 | 78 | 1017.4 |
| 20260502112026 | 18 | 194 | 3.2 | 14.5 | 0.00 | 0.03 | 0.03 | 77 | 1017.4 |
| 20260502111525 | 18 | 134 | 3.2 | 14.5 | 0.00 | 0.03 | 0.03 | 77 | 1017.5 |
| 20260502111034 | 17 | 43 | 1.6 | 11.3 | 0.00 | 0.03 | 0.03 | 80 | 1017.4 |
| 20260502110527 | 18 | 25 | 3.2 | 11.3 | 0.00 | 0.03 | 0.03 | 79 | 1017.6 |
| 20260502110025 | 18 | 145 | 3.2 | 11.3 | 0.00 | 0.03 | 0.03 | 79 | 1017.6 |
| 20260502105510 | 18 | 237 | 3.2 | 11.3 | 0.00 | 0.03 | 0.03 | 81 | 1017.6 |
| 20260502105018 | 17 | 121 | 3.2 | 9.7 | 0.00 | 0.03 | 0.03 | 82 | 1017.6 |
| 20260502104021 | 17 | 180 | 1.6 | 11.3 | 0.00 | 0.03 | 0.03 | 82 | 1017.6 |
| 20260502103517 | 17 | 205 | 1.6 | 11.3 | 0.00 | 0.03 | 0.03 | 83 | 1017.6 |
| 20260502103026 | 17 | 150 | 1.6 | 9.7 | 0.00 | 0.03 | 0.03 | 83 | 1017.7 |
| 20260502102510 | 17 | 203 | 3.2 | 8.0 | 0.00 | 0.03 | 0.03 | 83 | 1017.6 |
| 20260502102023 | 17 | 176 | 3.2 | 16.1 | 0.00 | 0.03 | 0.03 | 82 | 1017.6 |
| 20260502101520 | 17 | 160 | 3.2 | 16.1 | 0.00 | 0.03 | 0.03 | 82 | 1017.6 |
| 20260502101032 | 17 | 182 | 3.2 | 12.9 | 0.00 | 0.03 | 0.03 | 83 | 1017.6 |
| 20260502091407 | 15 | 38 | 1.6 | 12.9 | 0.00 | 0.03 | 0.00 | 89 | 1017.6 |
| 20260502090908 | 15 | 34 | 1.6 | 8.0 | 0.00 | 0.03 | 0.00 | 89 | 1017.6 |
| 20260502090406 | 15 | 127 | 0.0 | 4.8 | 0.03 | 0.03 | 0.03 | 89 | 1017.5 |